sensor_id;sensor_type;location;lat;lon;timestamp;pressure;altitude;pressure_sealevel;temperature;humidity
17635;BME280;8936;49.010;12.120;2022-12-07T00:01:16;97845.22;;;6.66;100.00
17635;BME280;8936;49.010;12.120;2022-12-07T00:03:43;97845.28;;;6.54;100.00
17635;BME280;8936;49.010;12.120;2022-12-07T00:06:10;97837.50;;;6.64;100.00
17635;BME280;8936;49.010;12.120;2022-12-07T00:08:38;97838.19;;;6.43;100.00
17635;BME280;8936;49.010;12.120;2022-12-07T00:11:06;97837.19;;;6.61;100.00
17635;BME280;8936;49.010;12.120;2022-12-07T00:13:33;97832.44;;;6.63;100.00
17635;BME280;8936;49.010;12.120;2022-12-07T00:16:00;97829.00;;;6.62;100.00
17635;BME280;8936;49.010;12.120;2022-12-07T00:18:27;97825.91;;;6.53;100.00
17635;BME280;8936;49.010;12.120;2022-12-07T00:20:53;97825.91;;;6.53;100.00
17635;BME280;8936;49.010;12.120;2022-12-07T00:23:24;97827.59;;;6.60;100.00
17635;BME280;8936;49.010;12.120;2022-12-07T00:25:52;97824.16;;;6.59;100.00
17635;BME280;8936;49.010;12.120;2022-12-07T00:28:18;97819.22;;;6.51;100.00
17635;BME280;8936;49.010;12.120;2022-12-07T00:30:44;97822.97;;;6.67;100.00
17635;BME280;8936;49.010;12.120;2022-12-07T00:33:11;97828.28;;;6.38;100.00
17635;BME280;8936;49.010;12.120;2022-12-07T00:35:37;97827.53;;;6.55;100.00
17635;BME280;8936;49.010;12.120;2022-12-07T00:38:03;97830.72;;;6.57;100.00
17635;BME280;8936;49.010;12.120;2022-12-07T00:40:30;97831.31;;;6.59;100.00
17635;BME280;8936;49.010;12.120;2022-12-07T00:42:57;97828.66;;;6.59;100.00
17635;BME280;8936;49.010;12.120;2022-12-07T00:45:24;97813.44;;;6.37;100.00
17635;BME280;8936;49.010;12.120;2022-12-07T00:47:50;97833.13;;;6.41;100.00
17635;BME280;8936;49.010;12.120;2022-12-07T00:50:16;97827.94;;;6.46;100.00
17635;BME280;8936;49.010;12.120;2022-12-07T00:52:43;97820.84;;;6.52;100.00
17635;BME280;8936;49.010;12.120;2022-12-07T00:55:09;97823.88;;;6.44;100.00
17635;BME280;8936;49.010;12.120;2022-12-07T00:57:35;97819.50;;;6.49;100.00
17635;BME280;8936;49.010;12.120;2022-12-07T01:00:03;97821.34;;;6.49;100.00
17635;BME280;8936;49.010;12.120;2022-12-07T01:02:30;97825.50;;;6.45;100.00
17635;BME280;8936;49.010;12.120;2022-12-07T01:04:56;97821.22;;;6.44;100.00
17635;BME280;8936;49.010;12.120;2022-12-07T01:07:23;97829.44;;;6.42;100.00
17635;BME280;8936;49.010;12.120;2022-12-07T01:09:49;97826.13;;;6.35;100.00
17635;BME280;8936;49.010;12.120;2022-12-07T01:12:15;97824.28;;;6.36;100.00
17635;BME280;8936;49.010;12.120;2022-12-07T01:14:42;97827.81;;;6.41;100.00
17635;BME280;8936;49.010;12.120;2022-12-07T01:17:09;97830.56;;;6.46;100.00
17635;BME280;8936;49.010;12.120;2022-12-07T01:19:35;97835.69;;;6.36;100.00
17635;BME280;8936;49.010;12.120;2022-12-07T01:22:02;97831.34;;;6.30;100.00
17635;BME280;8936;49.010;12.120;2022-12-07T01:24:28;97840.03;;;6.42;100.00
17635;BME280;8936;49.010;12.120;2022-12-07T01:26:54;97836.91;;;6.45;100.00
17635;BME280;8936;49.010;12.120;2022-12-07T01:29:21;97830.31;;;6.48;100.00
17635;BME280;8936;49.010;12.120;2022-12-07T01:31:48;97830.91;;;6.22;100.00
17635;BME280;8936;49.010;12.120;2022-12-07T01:34:15;97833.25;;;6.35;100.00
17635;BME280;8936;49.010;12.120;2022-12-07T01:36:42;97827.81;;;6.41;100.00
17635;BME280;8936;49.010;12.120;2022-12-07T01:39:08;97819.31;;;6.39;100.00
17635;BME280;8936;49.010;12.120;2022-12-07T01:41:36;97813.59;;;6.47;100.00
17635;BME280;8936;49.010;12.120;2022-12-07T01:44:08;97822.91;;;6.33;100.00
17635;BME280;8936;49.010;12.120;2022-12-07T01:46:35;97815.16;;;6.32;100.00
17635;BME280;8936;49.010;12.120;2022-12-07T01:49:01;97821.41;;;6.37;100.00
17635;BME280;8936;49.010;12.120;2022-12-07T01:51:31;97822.50;;;6.41;100.00
17635;BME280;8936;49.010;12.120;2022-12-07T01:53:57;97817.00;;;6.31;100.00
17635;BME280;8936;49.010;12.120;2022-12-07T01:56:25;97811.09;;;6.41;100.00
17635;BME280;8936;49.010;12.120;2022-12-07T01:58:53;97819.31;;;6.39;100.00
17635;BME280;8936;49.010;12.120;2022-12-07T02:01:20;97819.03;;;6.24;100.00
17635;BME280;8936;49.010;12.120;2022-12-07T02:03:47;97822.25;;;6.26;100.00
17635;BME280;8936;49.010;12.120;2022-12-07T02:06:16;97820.63;;;6.25;100.00
17635;BME280;8936;49.010;12.120;2022-12-07T02:08:44;97818.91;;;6.19;100.00
17635;BME280;8936;49.010;12.120;2022-12-07T02:11:11;97821.09;;;6.22;100.00
17635;BME280;8936;49.010;12.120;2022-12-07T02:13:38;97817.81;;;6.15;100.00
17635;BME280;8936;49.010;12.120;2022-12-07T02:16:08;97820.13;;;6.12;100.00
17635;BME280;8936;49.010;12.120;2022-12-07T02:18:42;97824.13;;;6.14;100.00
17635;BME280;8936;49.010;12.120;2022-12-07T02:21:11;97818.63;;;6.04;100.00
17635;BME280;8936;49.010;12.120;2022-12-07T02:23:40;97812.63;;;6.09;100.00
17635;BME280;8936;49.010;12.120;2022-12-07T02:26:13;97816.03;;;6.21;100.00
17635;BME280;8936;49.010;12.120;2022-12-07T02:28:51;97819.09;;;6.29;100.00
17635;BME280;8936;49.010;12.120;2022-12-07T02:31:22;97810.31;;;6.12;100.00
17635;BME280;8936;49.010;12.120;2022-12-07T02:33:50;97810.19;;;6.07;100.00
17635;BME280;8936;49.010;12.120;2022-12-07T02:36:20;97813.91;;;6.06;100.00
17635;BME280;8936;49.010;12.120;2022-12-07T02:38:50;97809.94;;;6.20;100.00
17635;BME280;8936;49.010;12.120;2022-12-07T02:41:22;97814.00;;;6.11;100.00
17635;BME280;8936;49.010;12.120;2022-12-07T02:43:52;97823.09;;;6.15;100.00
17635;BME280;8936;49.010;12.120;2022-12-07T02:46:20;97815.56;;;6.24;100.00
17635;BME280;8936;49.010;12.120;2022-12-07T02:48:47;97807.28;;;6.20;100.00
17635;BME280;8936;49.010;12.120;2022-12-07T02:51:13;97809.03;;;6.15;100.00
17635;BME280;8936;49.010;12.120;2022-12-07T02:53:41;97812.28;;;6.05;100.00
17635;BME280;8936;49.010;12.120;2022-12-07T02:56:09;97809.56;;;5.88;100.00
17635;BME280;8936;49.010;12.120;2022-12-07T02:58:42;97813.94;;;5.94;100.00
17635;BME280;8936;49.010;12.120;2022-12-07T03:01:17;97811.66;;;5.86;100.00
17635;BME280;8936;49.010;12.120;2022-12-07T03:03:48;97804.72;;;5.97;100.00
17635;BME280;8936;49.010;12.120;2022-12-07T03:06:19;97805.28;;;5.99;100.00
17635;BME280;8936;49.010;12.120;2022-12-07T03:08:51;97805.75;;;5.96;100.00
17635;BME280;8936;49.010;12.120;2022-12-07T03:11:22;97806.25;;;5.81;100.00
17635;BME280;8936;49.010;12.120;2022-12-07T03:13:51;97801.59;;;6.00;100.00
17635;BME280;8936;49.010;12.120;2022-12-07T03:16:22;97802.44;;;5.89;100.00
17635;BME280;8936;49.010;12.120;2022-12-07T03:18:52;97806.78;;;5.95;100.00
17635;BME280;8936;49.010;12.120;2022-12-07T03:21:20;97796.94;;;6.07;100.00
17635;BME280;8936;49.010;12.120;2022-12-07T03:23:50;97802.84;;;6.09;100.00
17635;BME280;8936;49.010;12.120;2022-12-07T03:26:17;97796.06;;;6.02;100.00
17635;BME280;8936;49.010;12.120;2022-12-07T03:28:47;97804.13;;;5.95;100.00
17635;BME280;8936;49.010;12.120;2022-12-07T03:31:15;97806.06;;;5.60;100.00
17635;BME280;8936;49.010;12.120;2022-12-07T03:33:46;97799.56;;;5.90;100.00
17635;BME280;8936;49.010;12.120;2022-12-07T03:36:16;97795.53;;;5.88;100.00
17635;BME280;8936;49.010;12.120;2022-12-07T03:38:45;97794.59;;;5.94;100.00
17635;BME280;8936;49.010;12.120;2022-12-07T03:41:14;97789.94;;;6.01;100.00
17635;BME280;8936;49.010;12.120;2022-12-07T03:43:43;97795.09;;;6.08;100.00
17635;BME280;8936;49.010;12.120;2022-12-07T03:46:13;97790.22;;;6.16;100.00
17635;BME280;8936;49.010;12.120;2022-12-07T03:48:40;97799.50;;;6.02;100.00
17635;BME280;8936;49.010;12.120;2022-12-07T03:51:11;97803.66;;;5.98;100.00
17635;BME280;8936;49.010;12.120;2022-12-07T03:53:39;97801.13;;;6.03;100.00
17635;BME280;8936;49.010;12.120;2022-12-07T03:56:06;97794.78;;;6.04;100.00
17635;BME280;8936;49.010;12.120;2022-12-07T03:58:34;97798.66;;;6.13;100.00
17635;BME280;8936;49.010;12.120;2022-12-07T04:01:01;97786.13;;;6.09;100.00
17635;BME280;8936;49.010;12.120;2022-12-07T04:03:27;97784.78;;;5.94;100.00
17635;BME280;8936;49.010;12.120;2022-12-07T04:05:53;97776.06;;;6.11;100.00
17635;BME280;8936;49.010;12.120;2022-12-07T04:08:21;97775.47;;;5.80;100.00
17635;BME280;8936;49.010;12.120;2022-12-07T04:10:47;97787.91;;;5.80;100.00
17635;BME280;8936;49.010;12.120;2022-12-07T04:13:14;97780.75;;;5.92;100.00
17635;BME280;8936;49.010;12.120;2022-12-07T04:15:40;97790.88;;;5.95;100.00
17635;BME280;8936;49.010;12.120;2022-12-07T04:18:06;97799.03;;;6.05;100.00
17635;BME280;8936;49.010;12.120;2022-12-07T04:20:33;97801.69;;;6.05;100.00
17635;BME280;8936;49.010;12.120;2022-12-07T04:22:59;97795.72;;;5.98;100.00
17635;BME280;8936;49.010;12.120;2022-12-07T04:25:27;97791.56;;;6.02;100.00
17635;BME280;8936;49.010;12.120;2022-12-07T04:27:53;97789.59;;;6.09;100.00
17635;BME280;8936;49.010;12.120;2022-12-07T04:30:20;97787.28;;;6.13;100.00
17635;BME280;8936;49.010;12.120;2022-12-07T04:32:46;97782.03;;;6.18;100.00
17635;BME280;8936;49.010;12.120;2022-12-07T04:35:12;97787.00;;;6.14;100.00
17635;BME280;8936;49.010;12.120;2022-12-07T04:37:38;97783.00;;;6.12;100.00
17635;BME280;8936;49.010;12.120;2022-12-07T04:40:06;97776.00;;;6.22;100.00
17635;BME280;8936;49.010;12.120;2022-12-07T04:42:35;97771.25;;;6.08;100.00
17635;BME280;8936;49.010;12.120;2022-12-07T04:45:01;97773.69;;;6.09;100.00
17635;BME280;8936;49.010;12.120;2022-12-07T04:47:27;97770.75;;;5.94;100.00
17635;BME280;8936;49.010;12.120;2022-12-07T04:49:54;97780.97;;;6.02;100.00
17635;BME280;8936;49.010;12.120;2022-12-07T04:52:20;97780.00;;;6.08;100.00
17635;BME280;8936;49.010;12.120;2022-12-07T04:54:46;97773.56;;;6.04;100.00
17635;BME280;8936;49.010;12.120;2022-12-07T04:57:13;97772.06;;;6.08;100.00
17635;BME280;8936;49.010;12.120;2022-12-07T04:59:40;97771.66;;;6.16;100.00
17635;BME280;8936;49.010;12.120;2022-12-07T05:02:07;97759.00;;;6.18;100.00
17635;BME280;8936;49.010;12.120;2022-12-07T05:04:33;97774.56;;;6.15;100.00
17635;BME280;8936;49.010;12.120;2022-12-07T05:06:59;97764.25;;;6.02;100.00
17635;BME280;8936;49.010;12.120;2022-12-07T05:09:26;97764.25;;;6.02;100.00
17635;BME280;8936;49.010;12.120;2022-12-07T05:11:52;97761.38;;;6.03;100.00
17635;BME280;8936;49.010;12.120;2022-12-07T05:14:19;97760.09;;;6.06;100.00
17635;BME280;8936;49.010;12.120;2022-12-07T05:16:48;97761.38;;;6.03;100.00
17635;BME280;8936;49.010;12.120;2022-12-07T05:19:14;97758.81;;;6.08;100.00
17635;BME280;8936;49.010;12.120;2022-12-07T05:21:40;97758.31;;;6.11;100.00
17635;BME280;8936;49.010;12.120;2022-12-07T05:24:08;97758.41;;;6.16;100.00
17635;BME280;8936;49.010;12.120;2022-12-07T05:26:36;97759.03;;;6.07;100.00
17635;BME280;8936;49.010;12.120;2022-12-07T05:29:02;97752.41;;;5.92;100.00
17635;BME280;8936;49.010;12.120;2022-12-07T05:31:29;97747.25;;;5.86;100.00
17635;BME280;8936;49.010;12.120;2022-12-07T05:33:57;97740.91;;;5.87;100.00
17635;BME280;8936;49.010;12.120;2022-12-07T05:36:23;97742.84;;;5.91;100.00
17635;BME280;8936;49.010;12.120;2022-12-07T05:38:49;97735.97;;;6.07;100.00
17635;BME280;8936;49.010;12.120;2022-12-07T05:41:16;97749.34;;;6.12;100.00
17635;BME280;8936;49.010;12.120;2022-12-07T05:44:01;97744.03;;;6.12;100.00
17635;BME280;8936;49.010;12.120;2022-12-07T05:46:27;97747.72;;;6.11;100.00
17635;BME280;8936;49.010;12.120;2022-12-07T05:48:54;97738.16;;;6.10;100.00
17635;BME280;8936;49.010;12.120;2022-12-07T05:51:22;97747.91;;;6.38;100.00
17635;BME280;8936;49.010;12.120;2022-12-07T05:53:48;97750.34;;;6.39;100.00
17635;BME280;8936;49.010;12.120;2022-12-07T05:56:14;97765.28;;;6.45;100.00
17635;BME280;8936;49.010;12.120;2022-12-07T05:58:41;97764.16;;;6.41;100.00
17635;BME280;8936;49.010;12.120;2022-12-07T06:01:25;97770.81;;;6.27;100.00
17635;BME280;8936;49.010;12.120;2022-12-07T06:03:51;97771.03;;;6.26;100.00
17635;BME280;8936;49.010;12.120;2022-12-07T06:06:18;97770.56;;;6.12;100.00
17635;BME280;8936;49.010;12.120;2022-12-07T06:08:45;97762.16;;;6.04;100.00
17635;BME280;8936;49.010;12.120;2022-12-07T06:11:12;97767.97;;;6.17;100.00
17635;BME280;8936;49.010;12.120;2022-12-07T06:13:56;97770.81;;;6.27;100.00
17635;BME280;8936;49.010;12.120;2022-12-07T06:16:22;97778.28;;;6.30;100.00
17635;BME280;8936;49.010;12.120;2022-12-07T06:18:48;97785.66;;;6.28;100.00
17635;BME280;8936;49.010;12.120;2022-12-07T06:21:15;97780.53;;;6.22;100.00
17635;BME280;8936;49.010;12.120;2022-12-07T06:23:41;97789.66;;;6.14;100.00
17635;BME280;8936;49.010;12.120;2022-12-07T06:26:09;97783.50;;;6.25;100.00
17635;BME280;8936;49.010;12.120;2022-12-07T06:28:35;97785.59;;;6.23;100.00
17635;BME280;8936;49.010;12.120;2022-12-07T06:31:02;97789.06;;;6.24;100.00
17635;BME280;8936;49.010;12.120;2022-12-07T06:33:29;97785.19;;;6.31;100.00
17635;BME280;8936;49.010;12.120;2022-12-07T06:35:55;97797.22;;;6.22;100.00
17635;BME280;8936;49.010;12.120;2022-12-07T06:38:21;97788.97;;;6.19;100.00
17635;BME280;8936;49.010;12.120;2022-12-07T06:40:48;97785.03;;;6.21;100.00
17635;BME280;8936;49.010;12.120;2022-12-07T06:43:15;97785.59;;;6.23;100.00
17635;BME280;8936;49.010;12.120;2022-12-07T06:45:42;97785.38;;;6.25;100.00
17635;BME280;8936;49.010;12.120;2022-12-07T06:48:08;97787.56;;;6.16;100.00
17635;BME280;8936;49.010;12.120;2022-12-07T06:50:35;97792.47;;;6.08;100.00
17635;BME280;8936;49.010;12.120;2022-12-07T06:53:01;97794.78;;;6.04;100.00
17635;BME280;8936;49.010;12.120;2022-12-07T06:55:27;97802.44;;;6.17;100.00
17635;BME280;8936;49.010;12.120;2022-12-07T06:57:54;97807.06;;;6.22;100.00
17635;BME280;8936;49.010;12.120;2022-12-07T07:00:22;97795.53;;;6.16;100.00
17635;BME280;8936;49.010;12.120;2022-12-07T07:02:48;97800.47;;;6.24;100.00
17635;BME280;8936;49.010;12.120;2022-12-07T07:05:14;97803.41;;;6.11;100.00
17635;BME280;8936;49.010;12.120;2022-12-07T07:07:41;97815.84;;;6.11;100.00
17635;BME280;8936;49.010;12.120;2022-12-07T07:10:08;97811.13;;;6.13;100.00
17635;BME280;8936;49.010;12.120;2022-12-07T07:12:34;97818.13;;;6.19;100.00
17635;BME280;8936;49.010;12.120;2022-12-07T07:15:01;97813.72;;;6.24;100.00
17635;BME280;8936;49.010;12.120;2022-12-07T07:17:28;97815.56;;;6.24;100.00
17635;BME280;8936;49.010;12.120;2022-12-07T07:19:55;97812.25;;;6.17;100.00
17635;BME280;8936;49.010;12.120;2022-12-07T07:22:21;97810.94;;;6.03;100.00
17635;BME280;8936;49.010;12.120;2022-12-07T07:24:47;97809.84;;;6.15;100.00
17635;BME280;8936;49.010;12.120;2022-12-07T07:27:14;97803.31;;;6.06;100.00
17635;BME280;8936;49.010;12.120;2022-12-07T07:29:40;97803.88;;;6.08;100.00
17635;BME280;8936;49.010;12.120;2022-12-07T07:32:06;97805.72;;;6.08;100.00
17635;BME280;8936;49.010;12.120;2022-12-07T07:34:34;97801.22;;;6.08;100.00
17635;BME280;8936;49.010;12.120;2022-12-07T07:37:01;97802.03;;;6.09;100.00
17635;BME280;8936;49.010;12.120;2022-12-07T07:39:27;97808.91;;;6.21;100.00
17635;BME280;8936;49.010;12.120;2022-12-07T07:41:53;97817.00;;;6.15;100.00
17635;BME280;8936;49.010;12.120;2022-12-07T07:44:20;97829.81;;;5.20;100.00
17635;BME280;8936;49.010;12.120;2022-12-07T07:46:46;97820.47;;;5.17;100.00
17635;BME280;8936;49.010;12.120;2022-12-07T07:49:13;97815.06;;;5.35;100.00
17635;BME280;8936;49.010;12.120;2022-12-07T07:51:40;97820.34;;;5.59;100.00
17635;BME280;8936;49.010;12.120;2022-12-07T07:54:07;97824.31;;;5.73;100.00
17635;BME280;8936;49.010;12.120;2022-12-07T07:56:33;97814.31;;;5.86;100.00
17635;BME280;8936;49.010;12.120;2022-12-07T07:58:59;97815.78;;;5.82;100.00
17635;BME280;8936;49.010;12.120;2022-12-07T08:01:26;97817.66;;;5.93;100.00
17635;BME280;8936;49.010;12.120;2022-12-07T08:03:52;97817.13;;;6.08;100.00
17635;BME280;8936;49.010;12.120;2022-12-07T08:06:18;97813.94;;;5.83;100.00
17635;BME280;8936;49.010;12.120;2022-12-07T08:08:46;97823.28;;;5.85;100.00
17635;BME280;8936;49.010;12.120;2022-12-07T08:11:12;97826.13;;;6.07;100.00
17635;BME280;8936;49.010;12.120;2022-12-07T08:13:39;97835.78;;;6.13;100.00
17635;BME280;8936;49.010;12.120;2022-12-07T08:16:06;97832.81;;;5.98;100.00
17635;BME280;8936;49.010;12.120;2022-12-07T08:18:34;97821.69;;;5.84;100.00
17635;BME280;8936;49.010;12.120;2022-12-07T08:21:01;97819.88;;;6.13;100.00
17635;BME280;8936;49.010;12.120;2022-12-07T08:23:27;97828.50;;;6.20;100.00
17635;BME280;8936;49.010;12.120;2022-12-07T08:25:55;97818.28;;;6.12;100.00
17635;BME280;8936;49.010;12.120;2022-12-07T08:28:25;97822.91;;;6.05;100.00
17635;BME280;8936;49.010;12.120;2022-12-07T08:30:52;97830.94;;;6.10;100.00
17635;BME280;8936;49.010;12.120;2022-12-07T08:33:18;97832.41;;;5.78;100.00
17635;BME280;8936;49.010;12.120;2022-12-07T08:35:47;97829.16;;;5.76;100.00
17635;BME280;8936;49.010;12.120;2022-12-07T08:38:13;97836.09;;;5.77;100.00
17635;BME280;8936;49.010;12.120;2022-12-07T08:40:40;97838.25;;;5.80;100.00
17635;BME280;8936;49.010;12.120;2022-12-07T08:43:07;97841.72;;;5.92;100.00
17635;BME280;8936;49.010;12.120;2022-12-07T08:45:34;97829.97;;;5.76;100.00
17635;BME280;8936;49.010;12.120;2022-12-07T08:48:01;97827.72;;;6.08;100.00
17635;BME280;8936;49.010;12.120;2022-12-07T08:50:29;97832.22;;;6.08;100.00
17635;BME280;8936;49.010;12.120;2022-12-07T08:52:58;97828.41;;;6.15;100.00
17635;BME280;8936;49.010;12.120;2022-12-07T08:55:26;97833.78;;;5.92;100.00
17635;BME280;8936;49.010;12.120;2022-12-07T08:57:53;97832.66;;;5.88;100.00
17635;BME280;8936;49.010;12.120;2022-12-07T09:00:21;97834.31;;;6.06;100.00
17635;BME280;8936;49.010;12.120;2022-12-07T09:02:47;97840.69;;;5.93;100.00
17635;BME280;8936;49.010;12.120;2022-12-07T09:05:14;97835.38;;;5.93;100.00
17635;BME280;8936;49.010;12.120;2022-12-07T09:07:40;97840.44;;;6.06;100.00
17635;BME280;8936;49.010;12.120;2022-12-07T09:10:08;97846.72;;;6.17;100.00
17635;BME280;8936;49.010;12.120;2022-12-07T09:12:34;97845.72;;;6.06;100.00
17635;BME280;8936;49.010;12.120;2022-12-07T09:15:01;97844.03;;;6.00;100.00
17635;BME280;8936;49.010;12.120;2022-12-07T09:17:31;97847.78;;;6.04;100.00
17635;BME280;8936;49.010;12.120;2022-12-07T09:19:57;97838.88;;;6.10;100.00
17635;BME280;8936;49.010;12.120;2022-12-07T09:22:23;97837.31;;;6.09;100.00
17635;BME280;8936;49.010;12.120;2022-12-07T09:24:50;97838.47;;;6.02;100.00
17635;BME280;8936;49.010;12.120;2022-12-07T09:27:16;97845.19;;;5.92;100.00
17635;BME280;8936;49.010;12.120;2022-12-07T09:29:43;97842.00;;;6.07;100.00
17635;BME280;8936;49.010;12.120;2022-12-07T09:32:09;97840.72;;;6.10;100.00
17635;BME280;8936;49.010;12.120;2022-12-07T09:34:37;97841.06;;;6.13;100.00
17635;BME280;8936;49.010;12.120;2022-12-07T09:37:04;97837.91;;;6.00;100.00
17635;BME280;8936;49.010;12.120;2022-12-07T09:39:31;97837.00;;;5.94;100.00
17635;BME280;8936;49.010;12.120;2022-12-07T09:41:58;97827.66;;;5.80;100.00
17635;BME280;8936;49.010;12.120;2022-12-07T09:44:25;97829.75;;;5.89;100.00
17635;BME280;8936;49.010;12.120;2022-12-07T09:46:52;97824.41;;;6.01;100.00
17635;BME280;8936;49.010;12.120;2022-12-07T09:49:19;97826.63;;;5.81;100.00
17635;BME280;8936;49.010;12.120;2022-12-07T09:51:47;97826.16;;;5.84;100.00
17635;BME280;8936;49.010;12.120;2022-12-07T09:54:14;97830.09;;;5.93;100.00
17635;BME280;8936;49.010;12.120;2022-12-07T09:56:41;97825.25;;;5.90;100.00
17635;BME280;8936;49.010;12.120;2022-12-07T09:59:09;97822.75;;;5.72;100.00
17635;BME280;8936;49.010;12.120;2022-12-07T10:01:38;97823.28;;;5.85;100.00
17635;BME280;8936;49.010;12.120;2022-12-07T10:04:08;97829.63;;;5.96;100.00
17635;BME280;8936;49.010;12.120;2022-12-07T10:06:35;97817.59;;;6.05;100.00
17635;BME280;8936;49.010;12.120;2022-12-07T10:09:07;97825.31;;;6.07;100.00
17635;BME280;8936;49.010;12.120;2022-12-07T10:11:34;97816.19;;;6.14;100.00
17635;BME280;8936;49.010;12.120;2022-12-07T10:14:10;97807.34;;;6.09;100.00
17635;BME280;8936;49.010;12.120;2022-12-07T10:16:37;97806.28;;;6.10;100.00
17635;BME280;8936;49.010;12.120;2022-12-07T10:19:22;97799.25;;;6.04;100.00
17635;BME280;8936;49.010;12.120;2022-12-07T10:21:59;97800.47;;;5.84;100.00
17635;BME280;8936;49.010;12.120;2022-12-07T10:24:27;97789.28;;;5.82;100.00
17635;BME280;8936;49.010;12.120;2022-12-07T10:26:53;97792.59;;;6.01;100.00
17635;BME280;8936;49.010;12.120;2022-12-07T10:29:20;97778.88;;;6.04;100.00
17635;BME280;8936;49.010;12.120;2022-12-07T10:31:50;97775.75;;;6.07;100.00
17635;BME280;8936;49.010;12.120;2022-12-07T10:34:20;97768.56;;;5.91;100.00
17635;BME280;8936;49.010;12.120;2022-12-07T10:36:49;97770.91;;;6.04;100.00
17635;BME280;8936;49.010;12.120;2022-12-07T10:39:16;97767.78;;;6.07;100.00
17635;BME280;8936;49.010;12.120;2022-12-07T10:41:53;97769.69;;;5.95;100.00
17635;BME280;8936;49.010;12.120;2022-12-07T10:44:21;97770.63;;;5.89;100.00
17635;BME280;8936;49.010;12.120;2022-12-07T10:46:51;97765.88;;;6.03;100.00
17635;BME280;8936;49.010;12.120;2022-12-07T10:49:30;97763.16;;;6.14;100.00
17635;BME280;8936;49.010;12.120;2022-12-07T10:52:03;97764.53;;;6.17;100.00
17635;BME280;8936;49.010;12.120;2022-12-07T10:54:35;97759.94;;;6.12;100.00
17635;BME280;8936;49.010;12.120;2022-12-07T10:57:14;97754.03;;;6.22;100.00
17635;BME280;8936;49.010;12.120;2022-12-07T10:59:52;97760.22;;;5.99;100.00
17635;BME280;8936;49.010;12.120;2022-12-07T11:05:11;97763.09;;;5.97;100.00
17635;BME280;8936;49.010;12.120;2022-12-07T11:07:42;97756.69;;;5.93;100.00
17635;BME280;8936;49.010;12.120;2022-12-07T11:10:13;97746.72;;;6.01;100.00
17635;BME280;8936;49.010;12.120;2022-12-07T11:12:54;97745.63;;;6.13;100.00
17635;BME280;8936;49.010;12.120;2022-12-07T11:15:26;97735.91;;;6.02;100.00
17635;BME280;8936;49.010;12.120;2022-12-07T11:17:56;97744.66;;;6.03;100.00
17635;BME280;8936;49.010;12.120;2022-12-07T11:20:29;97729.63;;;6.08;100.00
17635;BME280;8936;49.010;12.120;2022-12-07T11:23:02;97740.16;;;6.03;100.00
17635;BME280;8936;49.010;12.120;2022-12-07T11:25:31;97735.84;;;5.85;100.00
17635;BME280;8936;49.010;12.120;2022-12-07T11:28:06;97735.38;;;5.88;100.00
17635;BME280;8936;49.010;12.120;2022-12-07T11:30:37;97733.78;;;5.87;100.00
17635;BME280;8936;49.010;12.120;2022-12-07T11:33:10;97734.97;;;5.68;100.00
17635;BME280;8936;49.010;12.120;2022-12-07T11:35:45;97734.66;;;5.93;100.00
17635;BME280;8936;49.010;12.120;2022-12-07T11:38:14;97731.38;;;5.74;100.00
17635;BME280;8936;49.010;12.120;2022-12-07T11:40:43;97729.16;;;5.83;100.00
17635;BME280;8936;49.010;12.120;2022-12-07T11:43:15;97731.34;;;5.86;100.00
17635;BME280;8936;49.010;12.120;2022-12-07T11:45:46;97720.88;;;5.91;100.00
17635;BME280;8936;49.010;12.120;2022-12-07T11:48:17;97717.47;;;5.95;100.00
17635;BME280;8936;49.010;12.120;2022-12-07T11:50:46;97730.03;;;6.00;100.00
17635;BME280;8936;49.010;12.120;2022-12-07T11:53:15;97724.25;;;6.03;100.00
17635;BME280;8936;49.010;12.120;2022-12-07T11:55:44;97720.81;;;6.03;100.00
17635;BME280;8936;49.010;12.120;2022-12-07T11:58:18;97724.53;;;5.90;100.00
17635;BME280;8936;49.010;12.120;2022-12-07T12:00:47;97733.72;;;5.99;100.00
17635;BME280;8936;49.010;12.120;2022-12-07T12:03:15;97723.84;;;5.83;100.00
17635;BME280;8936;49.010;12.120;2022-12-07T12:05:46;97724.06;;;5.93;100.00
17635;BME280;8936;49.010;12.120;2022-12-07T12:08:13;97712.03;;;6.02;100.00
17635;BME280;8936;49.010;12.120;2022-12-07T12:10:57;97723.69;;;5.61;100.00
17635;BME280;8936;49.010;12.120;2022-12-07T12:13:36;97712.81;;;5.86;100.00
17635;BME280;8936;49.010;12.120;2022-12-07T12:16:16;97713.25;;;5.83;100.00
17635;BME280;8936;49.010;12.120;2022-12-07T12:18:51;97714.84;;;5.95;100.00
17635;BME280;8936;49.010;12.120;2022-12-07T12:21:22;97710.81;;;5.93;100.00
17635;BME280;8936;49.010;12.120;2022-12-07T12:23:54;97708.16;;;5.93;100.00
17635;BME280;8936;49.010;12.120;2022-12-07T12:26:23;97700.59;;;5.57;100.00
17635;BME280;8936;49.010;12.120;2022-12-07T12:28:52;97706.66;;;5.57;100.00
17635;BME280;8936;49.010;12.120;2022-12-07T12:31:29;97705.28;;;5.66;100.00
17635;BME280;8936;49.010;12.120;2022-12-07T12:33:58;97707.47;;;5.58;100.00
17635;BME280;8936;49.010;12.120;2022-12-07T12:36:28;97710.13;;;5.58;100.00
17635;BME280;8936;49.010;12.120;2022-12-07T12:39:10;97705.41;;;5.48;100.00
17635;BME280;8936;49.010;12.120;2022-12-07T12:41:51;97708.50;;;5.85;100.00
17635;BME280;8936;49.010;12.120;2022-12-07T12:47:43;97705.31;;;6.11;100.00
17635;BME280;8936;49.010;12.120;2022-12-07T12:50:18;97694.63;;;6.06;100.00
17635;BME280;8936;49.010;12.120;2022-12-07T12:52:47;97698.84;;;5.90;100.00
17635;BME280;8936;49.010;12.120;2022-12-07T12:58:35;97693.56;;;6.07;100.00
17635;BME280;8936;49.010;12.120;2022-12-07T13:03:53;97689.53;;;6.05;100.00
17635;BME280;8936;49.010;12.120;2022-12-07T13:06:31;97685.53;;;6.02;100.00
17635;BME280;8936;49.010;12.120;2022-12-07T13:09:00;97684.03;;;6.06;100.00
17635;BME280;8936;49.010;12.120;2022-12-07T13:11:28;97680.94;;;5.97;100.00
17635;BME280;8936;49.010;12.120;2022-12-07T13:16:38;97683.22;;;6.22;100.00
17635;BME280;8936;49.010;12.120;2022-12-07T13:21:51;97675.19;;;6.17;100.00
17635;BME280;8936;49.010;12.120;2022-12-07T13:24:18;97676.06;;;6.06;100.00